sensor_id;sensor_type;location;lat;lon;timestamp;P1;durP1;ratioP1;P2;durP2;ratioP2
12451;SDS011;6291;48.924;12.204;2023-03-19T00:04:11;12.20;;;9.53;;
12451;SDS011;6291;48.924;12.204;2023-03-19T00:09:16;13.10;;;9.77;;
12451;SDS011;6291;48.924;12.204;2023-03-19T00:14:21;13.05;;;9.32;;
12451;SDS011;6291;48.924;12.204;2023-03-19T00:19:26;12.93;;;10.20;;
12451;SDS011;6291;48.924;12.204;2023-03-19T00:24:30;11.13;;;8.98;;
12451;SDS011;6291;48.924;12.204;2023-03-19T00:29:35;12.55;;;9.00;;
12451;SDS011;6291;48.924;12.204;2023-03-19T00:34:40;11.75;;;9.40;;
12451;SDS011;6291;48.924;12.204;2023-03-19T00:39:44;14.00;;;9.45;;
12451;SDS011;6291;48.924;12.204;2023-03-19T00:44:48;13.70;;;9.80;;
12451;SDS011;6291;48.924;12.204;2023-03-19T00:49:53;15.48;;;10.75;;
12451;SDS011;6291;48.924;12.204;2023-03-19T00:54:56;12.57;;;9.33;;
12451;SDS011;6291;48.924;12.204;2023-03-19T01:00:00;14.80;;;9.57;;
12451;SDS011;6291;48.924;12.204;2023-03-19T01:05:05;13.15;;;8.70;;
12451;SDS011;6291;48.924;12.204;2023-03-19T01:10:10;12.05;;;9.48;;
12451;SDS011;6291;48.924;12.204;2023-03-19T01:15:14;12.77;;;9.65;;
12451;SDS011;6291;48.924;12.204;2023-03-19T01:20:19;14.02;;;9.48;;
12451;SDS011;6291;48.924;12.204;2023-03-19T01:25:25;11.87;;;9.40;;
12451;SDS011;6291;48.924;12.204;2023-03-19T01:30:35;12.33;;;9.93;;
12451;SDS011;6291;48.924;12.204;2023-03-19T01:35:55;12.90;;;9.43;;
12451;SDS011;6291;48.924;12.204;2023-03-19T01:41:05;16.95;;;14.27;;
12451;SDS011;6291;48.924;12.204;2023-03-19T01:46:13;13.65;;;10.20;;
12451;SDS011;6291;48.924;12.204;2023-03-19T01:51:31;13.63;;;10.93;;
12451;SDS011;6291;48.924;12.204;2023-03-19T01:56:50;11.82;;;9.80;;
12451;SDS011;6291;48.924;12.204;2023-03-19T02:02:19;14.38;;;10.25;;
12451;SDS011;6291;48.924;12.204;2023-03-19T02:07:28;12.60;;;9.80;;
12451;SDS011;6291;48.924;12.204;2023-03-19T02:12:32;14.63;;;9.67;;
12451;SDS011;6291;48.924;12.204;2023-03-19T02:17:35;12.20;;;9.48;;
12451;SDS011;6291;48.924;12.204;2023-03-19T02:22:42;11.82;;;9.80;;
12451;SDS011;6291;48.924;12.204;2023-03-19T02:27:56;11.82;;;9.30;;
12451;SDS011;6291;48.924;12.204;2023-03-19T02:33:00;13.00;;;9.40;;
12451;SDS011;6291;48.924;12.204;2023-03-19T02:38:03;12.90;;;9.90;;
12451;SDS011;6291;48.924;12.204;2023-03-19T02:43:09;11.53;;;9.50;;
12451;SDS011;6291;48.924;12.204;2023-03-19T02:48:12;12.65;;;9.63;;
12451;SDS011;6291;48.924;12.204;2023-03-19T02:53:15;12.88;;;9.35;;
12451;SDS011;6291;48.924;12.204;2023-03-19T02:58:20;11.20;;;9.50;;
12451;SDS011;6291;48.924;12.204;2023-03-19T03:03:24;10.60;;;8.88;;
12451;SDS011;6291;48.924;12.204;2023-03-19T03:08:28;11.85;;;8.63;;
12451;SDS011;6291;48.924;12.204;2023-03-19T03:13:33;11.27;;;8.82;;
12451;SDS011;6291;48.924;12.204;2023-03-19T03:18:37;9.63;;;8.13;;
12451;SDS011;6291;48.924;12.204;2023-03-19T03:23:41;11.02;;;8.60;;
12451;SDS011;6291;48.924;12.204;2023-03-19T03:28:45;10.70;;;8.27;;
12451;SDS011;6291;48.924;12.204;2023-03-19T03:33:49;10.48;;;8.32;;
12451;SDS011;6291;48.924;12.204;2023-03-19T03:38:53;13.13;;;9.02;;
12451;SDS011;6291;48.924;12.204;2023-03-19T03:43:58;11.97;;;8.50;;
12451;SDS011;6291;48.924;12.204;2023-03-19T03:49:02;9.98;;;8.70;;
12451;SDS011;6291;48.924;12.204;2023-03-19T03:54:06;11.97;;;8.97;;
12451;SDS011;6291;48.924;12.204;2023-03-19T03:59:11;10.50;;;8.88;;
12451;SDS011;6291;48.924;12.204;2023-03-19T04:04:14;11.13;;;9.37;;
12451;SDS011;6291;48.924;12.204;2023-03-19T04:09:18;11.98;;;9.45;;
12451;SDS011;6291;48.924;12.204;2023-03-19T04:14:23;9.70;;;8.50;;
12451;SDS011;6291;48.924;12.204;2023-03-19T04:19:26;10.95;;;8.48;;
12451;SDS011;6291;48.924;12.204;2023-03-19T04:24:30;11.23;;;8.73;;
12451;SDS011;6291;48.924;12.204;2023-03-19T04:29:35;10.77;;;8.73;;
12451;SDS011;6291;48.924;12.204;2023-03-19T04:34:39;12.88;;;10.07;;
12451;SDS011;6291;48.924;12.204;2023-03-19T04:39:43;12.87;;;9.83;;
12451;SDS011;6291;48.924;12.204;2023-03-19T04:44:48;10.47;;;8.93;;
12451;SDS011;6291;48.924;12.204;2023-03-19T04:49:53;14.50;;;9.90;;
12451;SDS011;6291;48.924;12.204;2023-03-19T04:54:59;12.23;;;9.77;;
12451;SDS011;6291;48.924;12.204;2023-03-19T05:00:08;13.10;;;9.73;;
12451;SDS011;6291;48.924;12.204;2023-03-19T05:05:14;11.45;;;9.98;;
12451;SDS011;6291;48.924;12.204;2023-03-19T05:10:18;11.57;;;9.70;;
12451;SDS011;6291;48.924;12.204;2023-03-19T05:15:24;11.10;;;9.50;;
12451;SDS011;6291;48.924;12.204;2023-03-19T05:20:38;12.90;;;10.07;;
12451;SDS011;6291;48.924;12.204;2023-03-19T05:25:51;10.23;;;9.10;;
12451;SDS011;6291;48.924;12.204;2023-03-19T05:31:14;12.25;;;9.15;;
12451;SDS011;6291;48.924;12.204;2023-03-19T05:36:22;26.45;;;17.05;;
12451;SDS011;6291;48.924;12.204;2023-03-19T05:41:31;16.00;;;12.93;;
12451;SDS011;6291;48.924;12.204;2023-03-19T05:46:39;15.00;;;11.40;;
12451;SDS011;6291;48.924;12.204;2023-03-19T05:51:44;12.52;;;10.63;;
12451;SDS011;6291;48.924;12.204;2023-03-19T05:56:48;12.70;;;9.93;;
12451;SDS011;6291;48.924;12.204;2023-03-19T06:02:09;11.80;;;9.50;;
12451;SDS011;6291;48.924;12.204;2023-03-19T06:07:14;12.17;;;9.40;;
12451;SDS011;6291;48.924;12.204;2023-03-19T06:12:17;11.60;;;9.07;;
12451;SDS011;6291;48.924;12.204;2023-03-19T06:17:42;14.52;;;10.30;;
12451;SDS011;6291;48.924;12.204;2023-03-19T06:22:49;12.80;;;10.00;;
12451;SDS011;6291;48.924;12.204;2023-03-19T06:27:55;13.25;;;10.30;;
12451;SDS011;6291;48.924;12.204;2023-03-19T06:33:03;11.60;;;9.85;;
12451;SDS011;6291;48.924;12.204;2023-03-19T06:38:07;12.80;;;9.43;;
12451;SDS011;6291;48.924;12.204;2023-03-19T06:43:10;11.17;;;9.10;;
12451;SDS011;6291;48.924;12.204;2023-03-19T06:48:15;10.30;;;8.93;;
12451;SDS011;6291;48.924;12.204;2023-03-19T06:53:19;10.53;;;8.63;;
12451;SDS011;6291;48.924;12.204;2023-03-19T06:58:22;10.87;;;8.70;;
12451;SDS011;6291;48.924;12.204;2023-03-19T07:03:28;10.57;;;9.07;;
12451;SDS011;6291;48.924;12.204;2023-03-19T07:08:31;11.27;;;9.52;;
12451;SDS011;6291;48.924;12.204;2023-03-19T07:13:35;10.63;;;9.40;;
12451;SDS011;6291;48.924;12.204;2023-03-19T07:18:40;9.80;;;8.60;;
12451;SDS011;6291;48.924;12.204;2023-03-19T07:23:43;11.43;;;9.40;;
12451;SDS011;6291;48.924;12.204;2023-03-19T07:28:47;12.45;;;10.35;;
12451;SDS011;6291;48.924;12.204;2023-03-19T07:33:52;11.15;;;9.07;;
12451;SDS011;6291;48.924;12.204;2023-03-19T07:38:56;12.70;;;9.57;;
12451;SDS011;6291;48.924;12.204;2023-03-19T07:43:59;13.98;;;10.50;;
12451;SDS011;6291;48.924;12.204;2023-03-19T07:49:04;14.45;;;10.95;;
12451;SDS011;6291;48.924;12.204;2023-03-19T07:54:08;13.13;;;9.20;;
12451;SDS011;6291;48.924;12.204;2023-03-19T07:59:11;12.15;;;9.50;;
12451;SDS011;6291;48.924;12.204;2023-03-19T08:04:16;12.30;;;9.00;;
12451;SDS011;6291;48.924;12.204;2023-03-19T08:09:19;10.83;;;8.47;;
12451;SDS011;6291;48.924;12.204;2023-03-19T08:14:23;9.23;;;8.17;;
12451;SDS011;6291;48.924;12.204;2023-03-19T08:19:27;11.47;;;8.67;;
12451;SDS011;6291;48.924;12.204;2023-03-19T08:24:31;13.38;;;9.68;;
12451;SDS011;6291;48.924;12.204;2023-03-19T08:29:34;15.80;;;10.77;;
12451;SDS011;6291;48.924;12.204;2023-03-19T08:34:39;14.27;;;9.23;;
12451;SDS011;6291;48.924;12.204;2023-03-19T08:39:43;12.03;;;9.10;;
12451;SDS011;6291;48.924;12.204;2023-03-19T08:44:46;24.73;;;15.68;;
12451;SDS011;6291;48.924;12.204;2023-03-19T08:49:51;17.95;;;12.38;;
12451;SDS011;6291;48.924;12.204;2023-03-19T08:54:54;18.35;;;11.80;;
12451;SDS011;6291;48.924;12.204;2023-03-19T08:59:58;10.13;;;8.88;;
12451;SDS011;6291;48.924;12.204;2023-03-19T09:05:03;11.03;;;8.60;;
12451;SDS011;6291;48.924;12.204;2023-03-19T09:10:08;10.67;;;9.07;;
12451;SDS011;6291;48.924;12.204;2023-03-19T09:15:12;10.33;;;8.57;;
12451;SDS011;6291;48.924;12.204;2023-03-19T09:20:17;11.63;;;9.63;;
12451;SDS011;6291;48.924;12.204;2023-03-19T09:25:21;12.32;;;9.30;;
12451;SDS011;6291;48.924;12.204;2023-03-19T09:30:25;10.55;;;8.60;;
12451;SDS011;6291;48.924;12.204;2023-03-19T09:35:30;11.68;;;8.65;;
12451;SDS011;6291;48.924;12.204;2023-03-19T09:40:35;10.70;;;8.20;;
12451;SDS011;6291;48.924;12.204;2023-03-19T09:45:41;8.43;;;6.95;;
12451;SDS011;6291;48.924;12.204;2023-03-19T09:50:49;10.30;;;7.75;;
12451;SDS011;6291;48.924;12.204;2023-03-19T09:55:54;8.32;;;6.82;;
12451;SDS011;6291;48.924;12.204;2023-03-19T10:01:02;8.18;;;6.45;;
12451;SDS011;6291;48.924;12.204;2023-03-19T10:06:12;8.43;;;6.40;;
12451;SDS011;6291;48.924;12.204;2023-03-19T10:11:36;5.80;;;4.65;;
12451;SDS011;6291;48.924;12.204;2023-03-19T10:16:53;4.78;;;3.83;;
12451;SDS011;6291;48.924;12.204;2023-03-19T10:22:03;8.70;;;5.97;;
12451;SDS011;6291;48.924;12.204;2023-03-19T10:27:10;4.93;;;3.70;;
12451;SDS011;6291;48.924;12.204;2023-03-19T10:32:17;4.10;;;3.10;;
12451;SDS011;6291;48.924;12.204;2023-03-19T10:37:25;4.77;;;3.50;;
12451;SDS011;6291;48.924;12.204;2023-03-19T10:42:37;3.78;;;3.10;;
12451;SDS011;6291;48.924;12.204;2023-03-19T10:47:51;4.50;;;3.10;;
12451;SDS011;6291;48.924;12.204;2023-03-19T10:53:01;4.83;;;2.57;;
12451;SDS011;6291;48.924;12.204;2023-03-19T10:58:19;4.33;;;2.60;;
12451;SDS011;6291;48.924;12.204;2023-03-19T11:03:28;3.58;;;2.40;;
12451;SDS011;6291;48.924;12.204;2023-03-19T11:08:35;3.38;;;2.50;;
12451;SDS011;6291;48.924;12.204;2023-03-19T11:13:40;4.15;;;2.15;;
12451;SDS011;6291;48.924;12.204;2023-03-19T11:18:43;3.60;;;1.93;;
12451;SDS011;6291;48.924;12.204;2023-03-19T11:23:52;3.05;;;2.50;;
12451;SDS011;6291;48.924;12.204;2023-03-19T11:29:01;3.65;;;2.30;;
12451;SDS011;6291;48.924;12.204;2023-03-19T11:34:18;4.43;;;2.70;;
12451;SDS011;6291;48.924;12.204;2023-03-19T11:39:36;3.00;;;2.05;;
12451;SDS011;6291;48.924;12.204;2023-03-19T11:44:51;3.25;;;2.28;;
12451;SDS011;6291;48.924;12.204;2023-03-19T11:50:08;4.03;;;2.30;;
12451;SDS011;6291;48.924;12.204;2023-03-19T11:55:21;5.87;;;4.23;;
12451;SDS011;6291;48.924;12.204;2023-03-19T12:00:30;5.90;;;4.40;;
12451;SDS011;6291;48.924;12.204;2023-03-19T12:05:42;5.70;;;4.40;;
12451;SDS011;6291;48.924;12.204;2023-03-19T12:10:57;4.97;;;4.20;;
12451;SDS011;6291;48.924;12.204;2023-03-19T12:16:14;4.38;;;3.72;;
12451;SDS011;6291;48.924;12.204;2023-03-19T12:21:26;3.77;;;3.30;;
12451;SDS011;6291;48.924;12.204;2023-03-19T12:26:44;4.73;;;3.40;;
12451;SDS011;6291;48.924;12.204;2023-03-19T12:32:03;6.07;;;3.70;;
12451;SDS011;6291;48.924;12.204;2023-03-19T12:37:25;4.78;;;3.97;;
12451;SDS011;6291;48.924;12.204;2023-03-19T12:42:37;4.20;;;3.53;;
12451;SDS011;6291;48.924;12.204;2023-03-19T12:47:42;4.50;;;3.50;;
12451;SDS011;6291;48.924;12.204;2023-03-19T12:52:49;4.35;;;3.85;;
12451;SDS011;6291;48.924;12.204;2023-03-19T12:58:00;5.18;;;3.58;;
12451;SDS011;6291;48.924;12.204;2023-03-19T13:03:10;4.13;;;3.40;;
12451;SDS011;6291;48.924;12.204;2023-03-19T13:08:21;4.63;;;3.05;;
12451;SDS011;6291;48.924;12.204;2023-03-19T13:13:37;4.60;;;3.45;;
12451;SDS011;6291;48.924;12.204;2023-03-19T13:29:07;3.85;;;2.80;;
12451;SDS011;6291;48.924;12.204;2023-03-19T13:34:18;3.80;;;2.70;;
12451;SDS011;6291;48.924;12.204;2023-03-19T13:39:30;3.70;;;2.70;;
12451;SDS011;6291;48.924;12.204;2023-03-19T13:44:40;4.63;;;2.85;;
12451;SDS011;6291;48.924;12.204;2023-03-19T13:50:00;3.15;;;2.50;;
12451;SDS011;6291;48.924;12.204;2023-03-19T13:55:29;3.42;;;2.30;;
12451;SDS011;6291;48.924;12.204;2023-03-19T14:00:58;3.08;;;2.20;;
12451;SDS011;6291;48.924;12.204;2023-03-19T14:06:02;2.97;;;2.20;;
12451;SDS011;6291;48.924;12.204;2023-03-19T14:11:06;3.38;;;2.65;;
12451;SDS011;6291;48.924;12.204;2023-03-19T14:16:14;3.53;;;2.80;;
12451;SDS011;6291;48.924;12.204;2023-03-19T14:21:30;4.30;;;2.47;;
12451;SDS011;6291;48.924;12.204;2023-03-19T14:26:37;4.22;;;2.40;;
12451;SDS011;6291;48.924;12.204;2023-03-19T14:31:47;2.63;;;2.20;;
12451;SDS011;6291;48.924;12.204;2023-03-19T14:36:55;2.70;;;2.30;;
12451;SDS011;6291;48.924;12.204;2023-03-19T14:42:03;3.10;;;2.33;;
12451;SDS011;6291;48.924;12.204;2023-03-19T14:47:20;4.32;;;3.25;;
12451;SDS011;6291;48.924;12.204;2023-03-19T14:52:45;6.72;;;5.70;;
12451;SDS011;6291;48.924;12.204;2023-03-19T14:57:53;2.55;;;2.10;;
12451;SDS011;6291;48.924;12.204;2023-03-19T15:03:00;3.60;;;2.13;;
12451;SDS011;6291;48.924;12.204;2023-03-19T15:08:04;3.90;;;2.37;;
12451;SDS011;6291;48.924;12.204;2023-03-19T15:13:20;2.50;;;1.70;;
12451;SDS011;6291;48.924;12.204;2023-03-19T15:18:35;4.95;;;2.70;;
12451;SDS011;6291;48.924;12.204;2023-03-19T15:23:39;3.50;;;2.00;;
12451;SDS011;6291;48.924;12.204;2023-03-19T15:28:47;2.03;;;1.20;;
12451;SDS011;6291;48.924;12.204;2023-03-19T15:33:55;3.00;;;2.23;;
12451;SDS011;6291;48.924;12.204;2023-03-19T15:39:00;3.33;;;2.30;;
12451;SDS011;6291;48.924;12.204;2023-03-19T15:44:07;1.83;;;1.40;;
12451;SDS011;6291;48.924;12.204;2023-03-19T15:49:14;4.30;;;3.10;;
12451;SDS011;6291;48.924;12.204;2023-03-19T15:54:23;3.05;;;1.77;;
12451;SDS011;6291;48.924;12.204;2023-03-19T15:59:28;1.98;;;1.30;;
12451;SDS011;6291;48.924;12.204;2023-03-19T16:04:36;1.63;;;1.40;;
12451;SDS011;6291;48.924;12.204;2023-03-19T16:10:00;3.10;;;2.50;;
12451;SDS011;6291;48.924;12.204;2023-03-19T16:15:42;1.80;;;1.30;;
12451;SDS011;6291;48.924;12.204;2023-03-19T16:20:54;2.70;;;1.80;;
12451;SDS011;6291;48.924;12.204;2023-03-19T16:26:18;2.30;;;1.63;;
12451;SDS011;6291;48.924;12.204;2023-03-19T16:31:24;3.93;;;2.10;;
12451;SDS011;6291;48.924;12.204;2023-03-19T16:36:34;3.45;;;2.40;;
12451;SDS011;6291;48.924;12.204;2023-03-19T16:41:37;2.90;;;1.77;;
12451;SDS011;6291;48.924;12.204;2023-03-19T16:46:42;7.07;;;4.10;;
12451;SDS011;6291;48.924;12.204;2023-03-19T16:51:47;5.25;;;3.92;;
12451;SDS011;6291;48.924;12.204;2023-03-19T16:56:51;7.60;;;5.93;;
12451;SDS011;6291;48.924;12.204;2023-03-19T17:01:54;7.22;;;5.20;;
12451;SDS011;6291;48.924;12.204;2023-03-19T17:06:59;10.88;;;8.15;;
12451;SDS011;6291;48.924;12.204;2023-03-19T17:12:03;14.43;;;10.23;;
12451;SDS011;6291;48.924;12.204;2023-03-19T17:17:11;9.65;;;8.48;;
12451;SDS011;6291;48.924;12.204;2023-03-19T17:22:21;14.10;;;12.80;;
12451;SDS011;6291;48.924;12.204;2023-03-19T17:27:28;11.35;;;10.20;;
12451;SDS011;6291;48.924;12.204;2023-03-19T17:32:35;10.57;;;9.02;;
12451;SDS011;6291;48.924;12.204;2023-03-19T17:37:40;9.68;;;8.00;;
12451;SDS011;6291;48.924;12.204;2023-03-19T17:42:45;5.45;;;4.35;;
12451;SDS011;6291;48.924;12.204;2023-03-19T17:47:50;12.90;;;8.32;;
12451;SDS011;6291;48.924;12.204;2023-03-19T17:52:58;9.40;;;8.38;;
12451;SDS011;6291;48.924;12.204;2023-03-19T17:58:02;8.60;;;7.75;;
12451;SDS011;6291;48.924;12.204;2023-03-19T18:03:08;9.35;;;8.35;;
12451;SDS011;6291;48.924;12.204;2023-03-19T18:08:18;13.27;;;11.27;;
12451;SDS011;6291;48.924;12.204;2023-03-19T18:13:24;13.13;;;10.00;;
12451;SDS011;6291;48.924;12.204;2023-03-19T18:18:27;11.30;;;9.02;;
12451;SDS011;6291;48.924;12.204;2023-03-19T18:23:32;25.73;;;17.70;;
12451;SDS011;6291;48.924;12.204;2023-03-19T18:28:37;35.17;;;20.13;;
12451;SDS011;6291;48.924;12.204;2023-03-19T18:33:41;29.17;;;17.30;;
12451;SDS011;6291;48.924;12.204;2023-03-19T18:38:48;10.77;;;8.23;;
12451;SDS011;6291;48.924;12.204;2023-03-19T18:43:51;6.45;;;5.03;;
12451;SDS011;6291;48.924;12.204;2023-03-19T18:48:56;5.40;;;4.00;;
12451;SDS011;6291;48.924;12.204;2023-03-19T18:54:03;5.85;;;4.55;;
12451;SDS011;6291;48.924;12.204;2023-03-19T18:59:07;6.10;;;4.90;;
12451;SDS011;6291;48.924;12.204;2023-03-19T19:04:15;6.30;;;5.07;;
12451;SDS011;6291;48.924;12.204;2023-03-19T19:09:20;8.97;;;6.07;;
12451;SDS011;6291;48.924;12.204;2023-03-19T19:14:24;8.35;;;6.38;;
12451;SDS011;6291;48.924;12.204;2023-03-19T19:19:27;16.67;;;11.13;;
12451;SDS011;6291;48.924;12.204;2023-03-19T19:24:43;15.90;;;11.10;;
12451;SDS011;6291;48.924;12.204;2023-03-19T19:29:51;12.00;;;8.82;;
12451;SDS011;6291;48.924;12.204;2023-03-19T19:34:55;10.77;;;8.75;;
12451;SDS011;6291;48.924;12.204;2023-03-19T19:40:04;8.70;;;6.75;;
12451;SDS011;6291;48.924;12.204;2023-03-19T19:45:17;10.95;;;8.40;;
12451;SDS011;6291;48.924;12.204;2023-03-19T19:50:31;19.20;;;11.40;;
12451;SDS011;6291;48.924;12.204;2023-03-19T19:55:37;21.48;;;12.77;;
12451;SDS011;6291;48.924;12.204;2023-03-19T20:00:40;25.08;;;14.18;;
12451;SDS011;6291;48.924;12.204;2023-03-19T20:06:00;41.23;;;22.13;;
12451;SDS011;6291;48.924;12.204;2023-03-19T20:11:10;21.67;;;13.48;;
12451;SDS011;6291;48.924;12.204;2023-03-19T20:16:17;11.70;;;9.17;;
12451;SDS011;6291;48.924;12.204;2023-03-19T20:21:21;8.05;;;6.38;;
12451;SDS011;6291;48.924;12.204;2023-03-19T20:26:27;10.77;;;7.80;;
12451;SDS011;6291;48.924;12.204;2023-03-19T20:31:31;12.75;;;9.25;;
12451;SDS011;6291;48.924;12.204;2023-03-19T20:36:36;11.48;;;8.00;;
12451;SDS011;6291;48.924;12.204;2023-03-19T20:41:41;10.10;;;7.30;;
12451;SDS011;6291;48.924;12.204;2023-03-19T20:46:46;8.50;;;6.00;;
12451;SDS011;6291;48.924;12.204;2023-03-19T20:51:50;8.15;;;6.80;;
12451;SDS011;6291;48.924;12.204;2023-03-19T20:56:55;7.05;;;6.35;;
12451;SDS011;6291;48.924;12.204;2023-03-19T21:01:58;6.47;;;5.70;;
12451;SDS011;6291;48.924;12.204;2023-03-19T21:07:02;8.48;;;6.78;;
12451;SDS011;6291;48.924;12.204;2023-03-19T21:12:09;8.90;;;6.63;;
12451;SDS011;6291;48.924;12.204;2023-03-19T21:17:29;9.63;;;8.20;;
12451;SDS011;6291;48.924;12.204;2023-03-19T21:22:33;10.50;;;7.88;;
12451;SDS011;6291;48.924;12.204;2023-03-19T21:27:38;11.73;;;8.90;;
12451;SDS011;6291;48.924;12.204;2023-03-19T21:32:46;9.75;;;7.05;;
12451;SDS011;6291;48.924;12.204;2023-03-19T21:37:50;7.70;;;6.90;;
12451;SDS011;6291;48.924;12.204;2023-03-19T21:42:57;9.68;;;7.70;;
12451;SDS011;6291;48.924;12.204;2023-03-19T21:48:16;8.47;;;7.57;;
12451;SDS011;6291;48.924;12.204;2023-03-19T21:53:25;8.32;;;5.78;;
12451;SDS011;6291;48.924;12.204;2023-03-19T21:58:32;6.13;;;5.40;;
12451;SDS011;6291;48.924;12.204;2023-03-19T22:03:37;5.80;;;5.20;;
12451;SDS011;6291;48.924;12.204;2023-03-19T22:08:40;6.90;;;5.53;;
12451;SDS011;6291;48.924;12.204;2023-03-19T22:13:46;6.00;;;5.28;;
12451;SDS011;6291;48.924;12.204;2023-03-19T22:18:50;10.07;;;7.00;;
12451;SDS011;6291;48.924;12.204;2023-03-19T22:23:54;8.97;;;5.40;;
12451;SDS011;6291;48.924;12.204;2023-03-19T22:29:00;6.07;;;5.22;;
12451;SDS011;6291;48.924;12.204;2023-03-19T22:34:05;6.45;;;5.30;;
12451;SDS011;6291;48.924;12.204;2023-03-19T22:39:12;7.03;;;4.87;;
12451;SDS011;6291;48.924;12.204;2023-03-19T22:44:18;6.70;;;5.07;;
12451;SDS011;6291;48.924;12.204;2023-03-19T22:49:25;6.50;;;4.95;;
12451;SDS011;6291;48.924;12.204;2023-03-19T22:54:30;6.47;;;5.22;;
12451;SDS011;6291;48.924;12.204;2023-03-19T22:59:35;5.07;;;4.00;;
12451;SDS011;6291;48.924;12.204;2023-03-19T23:04:39;6.03;;;4.50;;
12451;SDS011;6291;48.924;12.204;2023-03-19T23:09:42;5.75;;;4.35;;
12451;SDS011;6291;48.924;12.204;2023-03-19T23:14:47;5.00;;;4.10;;
12451;SDS011;6291;48.924;12.204;2023-03-19T23:19:51;4.22;;;3.50;;
12451;SDS011;6291;48.924;12.204;2023-03-19T23:24:54;3.90;;;3.40;;
12451;SDS011;6291;48.924;12.204;2023-03-19T23:29:59;5.90;;;3.40;;
12451;SDS011;6291;48.924;12.204;2023-03-19T23:35:04;5.13;;;3.47;;
12451;SDS011;6291;48.924;12.204;2023-03-19T23:40:16;4.60;;;3.28;;
12451;SDS011;6291;48.924;12.204;2023-03-19T23:45:31;5.40;;;3.40;;
12451;SDS011;6291;48.924;12.204;2023-03-19T23:50:37;4.13;;;3.40;;
12451;SDS011;6291;48.924;12.204;2023-03-19T23:55:41;5.18;;;3.25;;
